Terminal Aerodrome Forecast
Issued by NWS

Home | Current Version | Previous Version | Text Only | Print | Product List | Glossary On
Versions: 1 2 3 4 5 6 7 8 9 10 11 12 13
000
FTUS46 KSEW 260500
TAFCLM
TAF
KCLM 260535Z 2606/2706 27006KT P6SM SKC
     FM261300 VRB03KT P6SM SCT070 OVC150
     FM262100 VRB03KT P6SM SCT040 OVC070
     FM270200 VRB03KT P6SM -RA SCT025 OVC040=

USA.gov is the U.S. government's official web portal to all federal, state and local government web resources and services.